This is the latest recevied weather packets stored in our database for station/object OZ1IEP-5. If no packets are shown the sender has not sent any weather packets the latest 10 day(s).
| Time | Temp. | Humidity | Pressure | Rain* | Wind** | Luminosity | Snow |
|---|---|---|---|---|---|---|---|
| 1778002209 | 10.56° C | 55% | 1009.7 hPa | 0 mm | - | 40 W/m² | - |
| 1778001606 | 11.11° C | 59% | 1009.7 hPa | 0 mm | - | 86 W/m² | - |
| 1778001006 | 11.11° C | 57% | 1009.8 hPa | 0 mm | - | 44 W/m² | - |
| 1778000408 | 11.11° C | 56% | 1009.7 hPa | 0 mm | - | 60 W/m² | - |
| 1777999806 | 11.11° C | 56% | 1009.8 hPa | 0 mm | - | 51 W/m² | - |
| 1777999206 | 11.11° C | 59% | 1009.7 hPa | 0 mm | - | 47 W/m² | - |
| 1777998609 | 11.11° C | 58% | 1009.7 hPa | 0 mm | - | 46 W/m² | - |
| 1777998006 | 11.11° C | 56% | 1009.6 hPa | 0 mm | - | 44 W/m² | - |
| 1777997406 | 11.11° C | 62% | 1009.6 hPa | 0 mm | - | 88 W/m² | - |
| 1777996809 | 11.11° C | 59% | 1009.7 hPa | 0 mm | - | 46 W/m² | - |
| 1777996206 | 11.11° C | 57% | 1009.7 hPa | 0 mm | - | 49 W/m² | - |
| 1777995606 | 11.11° C | 56% | 1009.7 hPa | 0 mm | - | 49 W/m² | - |
| 1777995008 | 11.11° C | 53% | 1009.8 hPa | 0 mm | - | 56 W/m² | - |
| 1777994406 | 11.67° C | 51% | 1009.8 hPa | 0 mm | - | 429 W/m² | - |
| 1777993805 | 11.67° C | 52% | 1009.8 hPa | 0 mm | - | 274 W/m² | - |
| 1777993208 | 11.67° C | 59% | 1009.8 hPa | 0 mm | - | 54 W/m² | - |
| 1777992606 | 11.67° C | 52% | 1009.8 hPa | 0 mm | - | 91 W/m² | - |
| 1777992006 | 12.22° C | 51% | 1009.7 hPa | 0 mm | - | 570 W/m² | - |
| 1777991409 | 12.22° C | 51% | 1009.7 hPa | 0 mm | - | 591 W/m² | - |
| 1777990805 | 12.22° C | 46% | 1009.8 hPa | 0 mm | - | 610 W/m² | - |
| 1777989608 | 12.78° C | 45% | 1009.8 hPa | 0 mm | - | 654 W/m² | - |
| 1777989006 | 12.78° C | 46% | 1009.8 hPa | 0 mm | - | 673 W/m² | - |
| 1777988406 | 12.78° C | 50% | 1009.8 hPa | 0 mm | - | 687 W/m² | - |
| 1777987808 | 12.22° C | 52% | 1009.8 hPa | 0 mm | - | 707 W/m² | - |
| 1777987206 | 12.22° C | 59% | 1009.8 hPa | 0 mm | - | 719 W/m² | - |
* Rain latest hour (hover to see other rain measurements)
** Current wind speed in m/s (hover to see current wind gust speed)